createdAt,value
2019-05-01T00:02:40.633Z,99482.58
2019-05-01T00:05:24.648Z,99479.70
2019-05-01T00:07:56.712Z,99480.84
2019-05-01T00:10:28.873Z,99482.53
2019-05-01T00:13:00.095Z,99477.75
2019-05-01T00:15:34.204Z,99474.81
2019-05-01T00:18:06.712Z,99468.67
2019-05-01T00:20:38.992Z,99466.27
2019-05-01T00:23:12.799Z,99458.38
2019-05-01T00:25:45.312Z,99458.13
2019-05-01T00:28:19.102Z,99451.39
2019-05-01T00:30:59.012Z,99457.91
2019-05-01T00:33:31.333Z,99453.02
2019-05-01T00:36:02.372Z,99447.54
2019-05-01T00:38:34.123Z,99447.92
2019-05-01T00:41:08.806Z,99440.69
2019-05-01T00:43:40.713Z,99444.10
2019-05-01T00:46:12.693Z,99434.33
2019-05-01T00:48:44.713Z,99439.66
2019-05-01T00:51:18.695Z,99437.37
2019-05-01T00:53:53.153Z,99435.27
2019-05-01T00:56:44.192Z,99434.11
2019-05-01T00:59:35.153Z,99434.02
2019-05-01T01:02:22.353Z,99426.29
2019-05-01T01:04:54.813Z,99420.66
2019-05-01T01:07:26.875Z,99417.66
2019-05-01T01:09:59.073Z,99411.73
2019-05-01T01:12:31.182Z,99406.58
2019-05-01T01:15:05.254Z,99401.25
2019-05-01T01:17:37.193Z,99405.92
2019-05-01T01:20:09.453Z,99394.84
2019-05-01T01:22:41.553Z,99400.26
2019-05-01T01:25:14.264Z,99389.88
2019-05-01T01:27:46.715Z,99394.13
2019-05-01T01:30:19.063Z,99392.38
2019-05-01T01:32:51.143Z,99397.14
2019-05-01T01:35:24.813Z,99383.09
2019-05-01T01:37:56.824Z,99384.82
2019-05-01T01:40:29.173Z,99384.67
2019-05-01T01:43:19.021Z,99385.98
2019-05-01T01:45:53.273Z,99385.13
2019-05-01T01:48:25.734Z,99379.39
2019-05-01T01:51:00.963Z,99373.47
2019-05-01T01:53:33.992Z,99373.97
2019-05-01T01:56:06.252Z,99369.17
2019-05-01T01:58:38.463Z,99367.71
2019-05-01T02:01:32.552Z,99366.42
2019-05-01T02:04:09.913Z,99360.58
2019-05-01T02:06:42.127Z,99366.06
2019-05-01T02:09:13.242Z,99364.44
2019-05-01T02:11:47.085Z,99365.72
2019-05-01T02:14:19.092Z,99360.72
2019-05-01T02:16:51.253Z,99352.81
2019-05-01T02:19:22.352Z,99342.66
2019-05-01T02:21:54.273Z,99348.66
2019-05-01T02:24:26.403Z,99340.73
2019-05-01T02:26:59.142Z,99341.50
2019-05-01T02:29:40.952Z,99333.49
2019-05-01T02:32:13.975Z,99327.92
2019-05-01T02:34:47.996Z,99325.20
2019-05-01T02:37:20.694Z,99325.87
2019-05-01T02:39:53.697Z,99322.34
2019-05-01T02:42:28.744Z,99319.41
2019-05-01T02:45:03.323Z,99316.34
2019-05-01T02:47:39.234Z,99313.48
2019-05-01T02:50:12.449Z,99309.64
2019-05-01T02:52:46.015Z,99308.42
2019-05-01T02:55:28.381Z,99310.12
2019-05-01T02:58:01.546Z,99303.28
2019-05-01T03:00:33.903Z,99307.51
2019-05-01T03:03:06.253Z,99302.08
2019-05-01T03:05:37.297Z,99289.63
2019-05-01T03:08:10.297Z,99295.48
2019-05-01T03:10:42.814Z,99292.55
2019-05-01T03:13:15.375Z,99292.95
2019-05-01T03:15:48.273Z,99295.06
2019-05-01T03:18:35.053Z,99294.48
2019-05-01T03:21:19.869Z,99293.17
2019-05-01T03:23:56.328Z,99302.80
2019-05-01T03:26:28.464Z,99306.20
2019-05-01T03:29:03.255Z,99301.05
2019-05-01T03:31:35.493Z,99299.16
2019-05-01T03:34:07.840Z,99295.90
2019-05-01T03:36:40.884Z,99298.06
2019-05-01T03:39:13.706Z,99294.60
2019-05-01T03:41:47.318Z,99296.94
2019-05-01T03:44:20.276Z,99290.30
2019-05-01T03:46:53.305Z,99288.73
2019-05-01T03:49:26.297Z,99296.81
2019-05-01T03:51:58.948Z,99287.03
2019-05-01T03:54:31.515Z,99287.73
2019-05-01T03:57:04.005Z,99283.25
2019-05-01T03:59:36.438Z,99284.82
2019-05-01T04:02:33.909Z,99282.98
2019-05-01T04:04:59.770Z,99282.19
2019-05-01T04:07:36.089Z,99277.02
2019-05-01T04:10:06.975Z,99290.34
2019-05-01T04:12:39.657Z,99286.56
2019-05-01T04:15:12.153Z,99291.87
2019-05-01T04:17:49.607Z,99284.62
2019-05-01T04:20:21.957Z,99283.12
2019-05-01T04:22:57.305Z,99284.26
2019-05-01T04:25:29.535Z,99279.39
2019-05-01T04:28:03.487Z,99279.92
2019-05-01T04:30:53.114Z,99286.31
2019-05-01T04:33:26.256Z,99286.56
2019-05-01T04:36:04.385Z,99287.44
2019-05-01T04:38:36.685Z,99284.15
2019-05-01T04:41:08.985Z,99291.62
2019-05-01T04:43:41.417Z,99283.09
2019-05-01T04:46:14.109Z,99277.91
2019-05-01T04:48:46.254Z,99289.19
2019-05-01T04:51:17.508Z,99282.63
2019-05-01T04:53:51.206Z,99278.05
2019-05-01T04:56:23.337Z,99277.91
2019-05-01T04:58:54.444Z,99275.45
2019-05-01T05:01:31.125Z,99276.59
2019-05-01T05:04:03.365Z,99277.30
2019-05-01T05:06:35.766Z,99287.28
2019-05-01T05:09:07.245Z,99281.25
2019-05-01T05:11:49.704Z,99277.59
2019-05-01T05:14:26.645Z,99276.26
2019-05-01T05:17:05.796Z,99274.41
2019-05-01T05:19:38.992Z,99275.07
2019-05-01T05:22:11.344Z,99284.27
2019-05-01T05:24:43.703Z,99286.28
2019-05-01T05:27:16.763Z,99277.50
2019-05-01T05:29:49.445Z,99284.98
2019-05-01T05:32:23.655Z,99281.49
2019-05-01T05:34:59.607Z,99286.38
2019-05-01T05:37:39.765Z,99280.81
2019-05-01T05:40:12.681Z,99288.61
2019-05-01T05:42:45.114Z,99284.59
2019-05-01T05:45:17.926Z,99289.91
2019-05-01T05:47:51.154Z,99289.08
2019-05-01T05:50:25.543Z,99281.20
2019-05-01T05:53:03.333Z,99287.97
2019-05-01T05:55:44.725Z,99290.00
2019-05-01T05:58:26.266Z,99285.33
2019-05-01T06:01:22.426Z,99281.56
2019-05-01T06:04:21.355Z,99287.22
2019-05-01T06:07:07.953Z,99287.56
2019-05-01T06:09:51.555Z,99284.28
2019-05-01T06:12:46.820Z,99285.77
2019-05-01T06:15:41.266Z,99284.18
2019-05-01T06:18:46.634Z,99287.66
2019-05-01T06:21:46.893Z,99285.71
2019-05-01T06:24:24.106Z,99280.81
2019-05-01T06:26:57.485Z,99286.43
2019-05-01T06:29:35.817Z,99277.83
2019-05-01T06:32:05.545Z,99270.27
2019-05-01T06:34:37.914Z,99268.98
2019-05-01T06:37:09.805Z,99282.38
2019-05-01T06:39:43.003Z,99276.52
2019-05-01T06:42:16.914Z,99281.36
2019-05-01T06:45:13.039Z,99277.39
2019-05-01T06:48:01.966Z,99274.55
2019-05-01T06:50:43.925Z,99282.06
2019-05-01T06:53:16.388Z,99277.89
2019-05-01T06:55:51.438Z,99275.28
2019-05-01T06:58:23.514Z,99274.86
2019-05-01T07:00:55.735Z,99269.31
2019-05-01T07:03:28.814Z,99271.59
2019-05-01T07:06:13.744Z,99271.74
2019-05-01T07:08:39.515Z,99271.42
2019-05-01T07:11:10.833Z,99274.03
2019-05-01T07:13:51.734Z,99273.45
2019-05-01T07:16:24.863Z,99273.17
2019-05-01T07:19:05.841Z,99281.59
2019-05-01T07:21:32.911Z,99286.22
2019-05-01T07:24:06.273Z,99285.39
2019-05-01T07:26:37.094Z,99293.13
2019-05-01T07:29:12.395Z,99288.70
2019-05-01T07:31:47.713Z,99289.39
2019-05-01T07:34:21.757Z,99292.29
2019-05-01T07:36:54.115Z,99287.25
2019-05-01T07:39:26.315Z,99287.73
2019-05-01T07:41:58.984Z,99286.30
2019-05-01T07:44:38.493Z,99283.05
2019-05-01T07:47:18.440Z,99281.42
2019-05-01T07:49:58.051Z,99276.39
2019-05-01T07:52:31.095Z,99271.35
2019-05-01T07:55:04.526Z,99269.02
2019-05-01T07:57:39.504Z,99267.17
2019-05-01T08:00:21.425Z,99272.36
2019-05-01T08:02:53.825Z,99272.81
2019-05-01T08:05:26.048Z,99275.52
2019-05-01T08:07:58.433Z,99273.67
2019-05-01T08:10:33.725Z,99272.56
2019-05-01T08:13:04.265Z,99260.70
2019-05-01T08:15:36.418Z,99264.56
2019-05-01T08:18:36.226Z,99267.30
2019-05-01T08:21:26.166Z,99264.84
2019-05-01T08:23:59.686Z,99265.09
2019-05-01T08:26:32.113Z,99262.15
2019-05-01T08:29:27.604Z,99255.91
2019-05-01T08:32:11.095Z,99264.06
2019-05-01T08:34:49.156Z,99257.48
2019-05-01T08:37:22.678Z,99260.56
2019-05-01T08:39:52.483Z,99251.68
2019-05-01T08:42:24.513Z,99253.89
2019-05-01T08:45:18.215Z,99257.48
2019-05-01T08:48:00.362Z,99255.35
2019-05-01T08:50:31.535Z,99249.75
2019-05-01T08:53:03.667Z,99254.56
2019-05-01T08:55:39.808Z,99249.61
2019-05-01T08:58:13.929Z,99239.86
2019-05-01T09:00:45.325Z,99244.97
2019-05-01T09:03:18.566Z,99252.67
2019-05-01T09:05:52.207Z,99245.95
2019-05-01T09:08:22.665Z,99248.28
2019-05-01T09:10:59.920Z,99249.03
2019-05-01T09:13:29.395Z,99247.31
2019-05-01T09:16:01.666Z,99247.80
2019-05-01T09:18:33.833Z,99240.88
2019-05-01T09:21:05.223Z,99240.22
2019-05-01T09:23:37.254Z,99238.89
2019-05-01T09:26:36.303Z,99242.36
2019-05-01T09:29:11.048Z,99242.80
2019-05-01T09:31:44.685Z,99237.44
2019-05-01T09:34:19.247Z,99236.51
2019-05-01T09:36:51.107Z,99231.15
2019-05-01T09:39:23.893Z,99226.81
2019-05-01T09:41:54.784Z,99225.75
2019-05-01T09:44:27.685Z,99222.30
2019-05-01T09:47:00.136Z,99229.04
2019-05-01T09:49:32.283Z,99221.05
2019-05-01T09:52:23.448Z,99222.48
2019-05-01T09:55:04.505Z,99221.14
2019-05-01T09:57:41.478Z,99216.44
2019-05-01T10:00:15.362Z,99215.10
2019-05-01T10:02:47.565Z,99217.28
2019-05-01T10:05:28.621Z,99218.79
2019-05-01T10:07:52.705Z,99215.09
2019-05-01T10:10:29.305Z,99212.22
2019-05-01T10:12:59.192Z,99193.30
2019-05-01T10:15:30.264Z,99211.31
2019-05-01T10:18:02.203Z,99217.66
2019-05-01T10:20:34.073Z,99209.25
2019-05-01T10:23:07.749Z,99215.62
2019-05-01T10:25:42.816Z,99210.67
2019-05-01T10:28:20.546Z,99207.75
2019-05-01T10:31:06.937Z,99211.14
2019-05-01T10:33:42.987Z,99206.98
2019-05-01T10:36:33.863Z,99191.90
2019-05-01T10:39:07.987Z,99197.02
2019-05-01T10:41:41.011Z,99192.42
2019-05-01T10:44:13.875Z,99191.64
2019-05-01T10:46:45.065Z,99186.91
2019-05-01T10:49:16.833Z,99191.45
2019-05-01T10:51:48.344Z,99188.67
2019-05-01T10:54:20.153Z,99186.64
2019-05-01T10:56:52.094Z,99182.22
2019-05-01T10:59:24.114Z,99187.13
2019-05-01T11:01:58.715Z,99178.67
2019-05-01T11:04:31.027Z,99187.30
2019-05-01T11:07:03.183Z,99181.22
2019-05-01T11:09:34.245Z,99178.89
2019-05-01T11:12:06.213Z,99172.70
2019-05-01T11:14:37.185Z,99167.87
2019-05-01T11:17:09.034Z,99175.35
2019-05-01T11:19:40.064Z,99168.17
2019-05-01T11:22:12.113Z,99174.42
2019-05-01T11:24:43.144Z,99168.91
2019-05-01T11:27:14.905Z,99167.16
2019-05-01T11:29:45.964Z,99167.91
2019-05-01T11:32:45.673Z,99155.75
2019-05-01T11:35:48.655Z,99168.25
2019-05-01T11:38:42.623Z,99165.92
2019-05-01T11:41:24.665Z,99158.02
2019-05-01T11:43:56.733Z,99159.17
2019-05-01T11:46:29.110Z,99154.16
2019-05-01T11:49:01.098Z,99155.17
2019-05-01T11:51:33.124Z,99156.92
2019-05-01T11:54:04.229Z,99154.87
2019-05-01T11:56:36.295Z,99154.45
2019-05-01T11:59:07.324Z,99141.02
2019-05-01T12:01:39.194Z,99148.01
2019-05-01T12:04:10.408Z,99146.18
2019-05-01T12:06:42.215Z,99145.03
2019-05-01T12:09:13.451Z,99137.84
2019-05-01T12:11:48.046Z,99137.20
2019-05-01T12:14:20.024Z,99128.16
2019-05-01T12:17:02.636Z,99129.33
2019-05-01T12:19:34.755Z,99132.13
2019-05-01T12:22:06.720Z,99127.98
2019-05-01T12:24:39.387Z,99128.47
2019-05-01T12:27:11.326Z,99123.77
2019-05-01T12:29:43.315Z,99119.06
2019-05-01T12:32:14.634Z,99115.41
2019-05-01T12:34:46.464Z,99107.12
2019-05-01T12:37:29.335Z,99107.06
2019-05-01T12:40:01.423Z,99116.90
2019-05-01T12:42:34.603Z,99111.27
2019-05-01T12:45:08.725Z,99109.63
2019-05-01T12:47:52.397Z,99099.53
2019-05-01T12:50:24.773Z,99107.91
2019-05-01T12:53:11.394Z,99102.46
2019-05-01T12:56:05.275Z,99115.58
2019-05-01T12:58:37.946Z,99102.34
2019-05-01T13:01:10.166Z,99096.98
2019-05-01T13:03:41.344Z,99108.87
2019-05-01T13:06:14.505Z,99104.07
2019-05-01T13:08:46.646Z,99102.03
2019-05-01T13:11:17.706Z,99097.53
2019-05-01T13:13:49.573Z,99089.44
2019-05-01T13:16:21.849Z,99084.83
2019-05-01T13:18:53.740Z,99090.71
2019-05-01T13:21:25.685Z,99086.02
2019-05-01T13:23:56.764Z,99085.38
2019-05-01T13:26:34.575Z,99085.07
2019-05-01T13:29:26.049Z,99084.08
2019-05-01T13:32:15.845Z,99070.50
2019-05-01T13:34:48.130Z,99069.69
2019-05-01T13:37:20.665Z,99070.69
2019-05-01T13:39:51.764Z,99073.20
2019-05-01T13:42:23.485Z,99055.83
2019-05-01T13:44:55.547Z,99060.34
2019-05-01T13:47:26.604Z,99059.84
2019-05-01T13:49:59.146Z,99059.35
2019-05-01T13:52:30.184Z,99057.51
2019-05-01T13:55:05.144Z,99050.58
2019-05-01T13:57:37.133Z,99050.73
2019-05-01T14:00:09.483Z,99047.80
2019-05-01T14:02:43.195Z,99044.13
2019-05-01T14:05:15.445Z,99049.66
2019-05-01T14:07:46.594Z,99050.16
2019-05-01T14:10:18.705Z,99055.01
2019-05-01T14:12:50.894Z,99045.80
2019-05-01T14:15:21.884Z,99046.73
2019-05-01T14:17:53.645Z,99042.53
2019-05-01T14:20:42.484Z,99048.64
2019-05-01T14:23:23.986Z,99046.14
2019-05-01T14:26:06.085Z,99049.48
2019-05-01T14:28:38.731Z,99047.20
2019-05-01T14:31:09.643Z,99047.23
2019-05-01T14:33:41.605Z,99045.84
2019-05-01T14:36:13.726Z,99041.34
2019-05-01T14:38:45.896Z,99042.11
2019-05-01T14:41:20.005Z,99038.08
2019-05-01T14:43:51.063Z,99046.81
2019-05-01T14:46:22.937Z,99052.77
2019-05-01T14:48:54.998Z,99059.04
2019-05-01T14:51:27.303Z,99052.48
2019-05-01T14:53:59.445Z,99058.52
2019-05-01T14:56:31.593Z,99052.91
2019-05-01T14:59:03.653Z,99063.42
2019-05-01T15:01:34.704Z,99056.89
2019-05-01T15:04:06.671Z,99055.89
2019-05-01T15:06:39.865Z,99058.75
2019-05-01T15:09:12.134Z,99059.05
2019-05-01T15:11:45.267Z,99056.22
2019-05-01T15:14:42.685Z,99056.88
2019-05-01T15:17:26.683Z,99057.95
2019-05-01T15:20:05.267Z,99049.78
2019-05-01T15:22:38.973Z,99056.77
2019-05-01T15:25:10.184Z,99058.14
2019-05-01T15:27:44.954Z,99057.00
2019-05-01T15:30:20.433Z,99058.25
2019-05-01T15:32:52.753Z,99057.17
2019-05-01T15:35:24.874Z,99054.59
2019-05-01T15:37:57.122Z,99043.83
2019-05-01T15:40:38.164Z,99045.96
2019-05-01T15:43:44.376Z,99045.67
2019-05-01T15:46:16.635Z,99044.53
2019-05-01T15:48:49.013Z,99044.05
2019-05-01T15:51:20.055Z,99046.33
2019-05-01T15:53:51.826Z,99043.92
2019-05-01T15:56:23.806Z,99043.38
2019-05-01T15:58:56.215Z,99040.61
2019-05-01T16:01:28.325Z,99040.36
2019-05-01T16:04:00.376Z,99039.44
2019-05-01T16:06:31.383Z,99038.24
2019-05-01T16:09:03.474Z,99038.75
2019-05-01T16:12:11.216Z,99033.92
2019-05-01T16:14:46.555Z,99033.28
2019-05-01T16:17:18.473Z,99025.39
2019-05-01T16:19:50.553Z,99033.86
2019-05-01T16:22:21.584Z,99029.87
2019-05-01T16:24:53.313Z,99025.41
2019-05-01T16:27:25.308Z,99026.31
2019-05-01T16:29:57.493Z,99023.81
2019-05-01T16:32:29.595Z,99018.06
2019-05-01T16:35:02.145Z,99025.86
2019-05-01T16:37:34.405Z,99024.16
2019-05-01T16:40:21.144Z,99018.14
2019-05-01T16:42:52.973Z,99021.73
2019-05-01T16:45:24.003Z,99019.82
2019-05-01T16:47:55.753Z,99022.38
2019-05-01T16:50:27.833Z,99025.44
2019-05-01T16:52:59.174Z,99026.37
2019-05-01T16:55:31.697Z,99031.58
2019-05-01T16:58:05.153Z,99026.76
2019-05-01T17:01:15.483Z,99027.05
2019-05-01T17:04:06.415Z,99030.70
2019-05-01T17:07:00.376Z,99027.91
2019-05-01T17:09:49.744Z,99027.88
2019-05-01T17:12:24.696Z,99023.42
2019-05-01T17:14:56.948Z,99023.33
2019-05-01T17:17:29.766Z,99024.05
2019-05-01T17:20:01.952Z,99019.91
2019-05-01T17:22:35.134Z,99018.62
2019-05-01T17:25:06.904Z,99018.92
2019-05-01T17:27:39.003Z,99026.08
2019-05-01T17:30:17.106Z,99025.25
2019-05-01T17:32:50.191Z,99025.07
2019-05-01T17:35:22.102Z,99033.02
2019-05-01T17:37:54.276Z,99032.22
2019-05-01T17:40:25.284Z,99027.41
2019-05-01T17:42:57.123Z,99031.08
2019-05-01T17:45:29.966Z,99026.39
2019-05-01T17:48:03.349Z,99022.81
2019-05-01T17:50:35.245Z,99028.70
2019-05-01T17:53:07.475Z,99028.47
2019-05-01T17:55:39.763Z,99031.00
2019-05-01T17:58:10.824Z,99034.88
2019-05-01T18:01:01.634Z,99027.45
2019-05-01T18:04:03.180Z,99030.44
2019-05-01T18:06:42.016Z,99039.94
2019-05-01T18:09:13.522Z,99039.34
2019-05-01T18:11:47.312Z,99041.97
2019-05-01T18:14:19.783Z,99036.83
2019-05-01T18:16:53.285Z,99046.53
2019-05-01T18:19:25.249Z,99038.73
2019-05-01T18:22:06.945Z,99043.00
2019-05-01T18:25:12.653Z,99044.06
2019-05-01T18:27:59.973Z,99048.32
2019-05-01T18:30:36.225Z,99036.91
2019-05-01T18:33:08.268Z,99050.56
2019-05-01T18:35:40.253Z,99041.30
2019-05-01T18:38:30.174Z,99046.52
2019-05-01T18:41:09.228Z,99043.73
2019-05-01T18:43:41.305Z,99050.75
2019-05-01T18:46:14.003Z,99053.20
2019-05-01T18:48:46.146Z,99049.20
2019-05-01T18:51:18.424Z,99045.41
2019-05-01T18:53:50.436Z,99050.62
2019-05-01T18:56:22.625Z,99053.20
2019-05-01T18:58:54.686Z,99054.91
2019-05-01T19:01:26.745Z,99049.98
2019-05-01T19:03:57.703Z,99049.34
2019-05-01T19:06:40.571Z,99051.98
2019-05-01T19:09:14.841Z,99046.11
2019-05-01T19:11:40.666Z,99054.00
2019-05-01T19:14:11.805Z,99056.21
2019-05-01T19:16:45.339Z,99061.34
2019-05-01T19:19:18.195Z,99052.47
2019-05-01T19:21:53.896Z,99054.94
2019-05-01T19:24:25.883Z,99051.36
2019-05-01T19:26:56.964Z,99048.36
2019-05-01T19:29:32.187Z,99046.16
2019-05-01T19:32:03.105Z,99051.95
2019-05-01T19:34:34.224Z,99050.44
2019-05-01T19:37:06.563Z,99048.17
2019-05-01T19:39:43.894Z,99049.84
2019-05-01T19:42:12.864Z,99043.17
2019-05-01T19:44:43.869Z,99037.22
2019-05-01T19:47:15.794Z,99044.39
2019-05-01T19:49:47.853Z,99037.48
2019-05-01T19:52:23.421Z,99041.69
2019-05-01T19:54:55.926Z,99041.32
2019-05-01T19:57:26.949Z,99043.10
2019-05-01T19:59:58.777Z,99035.54
2019-05-01T20:02:30.918Z,99037.02
2019-05-01T20:05:02.131Z,99042.64
2019-05-01T20:07:34.127Z,99035.91
2019-05-01T20:10:05.664Z,99044.05
2019-05-01T20:12:37.638Z,99041.42
2019-05-01T20:15:09.064Z,99039.17
2019-05-01T20:17:41.054Z,99045.75
2019-05-01T20:20:12.274Z,99042.63
2019-05-01T20:22:48.245Z,99031.89
2019-05-01T20:25:19.356Z,99032.61
2019-05-01T20:27:53.223Z,99038.63
2019-05-01T20:30:25.463Z,99032.15
2019-05-01T20:32:58.219Z,99035.48
2019-05-01T20:35:34.167Z,99040.04
2019-05-01T20:38:05.153Z,99038.05
2019-05-01T20:40:37.413Z,99037.92
2019-05-01T20:43:08.723Z,99032.65
2019-05-01T20:45:40.594Z,99035.42
2019-05-01T20:48:12.745Z,99030.41
2019-05-01T20:50:44.775Z,99028.54
2019-05-01T20:53:15.865Z,99018.83
2019-05-01T20:55:55.345Z,99032.13
2019-05-01T20:58:27.494Z,99029.36
2019-05-01T21:01:03.071Z,99027.62
2019-05-01T21:03:36.806Z,99036.38
2019-05-01T21:06:33.825Z,99037.25
2019-05-01T21:09:25.386Z,99036.17
2019-05-01T21:12:05.390Z,99035.72
2019-05-01T21:14:32.245Z,99030.23
2019-05-01T21:17:09.662Z,99027.46
2019-05-01T21:19:38.916Z,99023.90
2019-05-01T21:22:10.833Z,99027.85
2019-05-01T21:24:44.419Z,99016.10
2019-05-01T21:27:16.494Z,99019.09
2019-05-01T21:29:48.524Z,99017.78
2019-05-01T21:32:26.125Z,99018.37
2019-05-01T21:34:53.725Z,99016.92
2019-05-01T21:37:25.875Z,99013.89
2019-05-01T21:39:57.825Z,99004.31
2019-05-01T21:42:29.865Z,99009.70
2019-05-01T21:45:04.178Z,99007.20
2019-05-01T21:47:35.614Z,99005.49
2019-05-01T21:50:08.756Z,99002.86
2019-05-01T21:52:43.783Z,99008.38
2019-05-01T21:55:15.853Z,99001.29
2019-05-01T21:57:50.097Z,99002.00
2019-05-01T22:00:24.785Z,99003.92
2019-05-01T22:02:57.309Z,99004.02
2019-05-01T22:05:29.345Z,98993.23
2019-05-01T22:08:03.805Z,98989.50
2019-05-01T22:10:35.286Z,98990.00
2019-05-01T22:13:07.103Z,98993.70
2019-05-01T22:15:47.152Z,98987.68
2019-05-01T22:18:21.946Z,98979.06
2019-05-01T22:21:18.533Z,98985.05
2019-05-01T22:24:07.114Z,98976.69
2019-05-01T22:26:42.976Z,98974.88
2019-05-01T22:29:16.655Z,98973.66
2019-05-01T22:32:07.393Z,98977.25
2019-05-01T22:34:46.315Z,98976.44
2019-05-01T22:37:18.216Z,98977.36
2019-05-01T22:39:56.573Z,98974.73
2019-05-01T22:42:28.436Z,98972.09
2019-05-01T22:45:00.365Z,98966.11
2019-05-01T22:47:33.853Z,98966.82
2019-05-01T22:50:09.003Z,98963.76
2019-05-01T22:52:40.853Z,98959.30
2019-05-01T22:55:15.793Z,98957.48
2019-05-01T22:57:48.243Z,98950.61
2019-05-01T23:00:40.093Z,98964.52
2019-05-01T23:03:18.753Z,98964.56
2019-05-01T23:05:50.726Z,98951.10
2019-05-01T23:08:23.075Z,98950.69
2019-05-01T23:10:55.085Z,98945.38
2019-05-01T23:13:26.985Z,98943.34
2019-05-01T23:15:59.193Z,98938.62
2019-05-01T23:18:30.143Z,98931.27
2019-05-01T23:21:02.025Z,98929.48
2019-05-01T23:23:34.203Z,98925.98
2019-05-01T23:26:06.328Z,98920.50
2019-05-01T23:28:39.879Z,98918.50
2019-05-01T23:31:11.935Z,98920.61
2019-05-01T23:33:45.684Z,98916.47
2019-05-01T23:36:23.817Z,98918.08
2019-05-01T23:38:51.213Z,98917.88
2019-05-01T23:41:44.280Z,98923.06
2019-05-01T23:43:58.148Z,98920.79
2019-05-01T23:46:31.445Z,98923.83
2019-05-01T23:49:04.735Z,98925.83
2019-05-01T23:51:36.713Z,98918.64
2019-05-01T23:54:08.582Z,98915.08
2019-05-01T23:56:39.784Z,98908.48
2019-05-01T23:59:11.713Z,98905.41
